Terminal Aerodrome Forecast
Issued by NWS

Home | Current Version | Previous Version | Text Only | Print | Product List | Glossary On
Versions: 1 2 3 4 5 6 7 8 9 10 11 12 13 14 15 16 17 18 19
234
FTUS41 KGYX 251720
TAFLEB
TAF
KLEB 251720Z 2518/2618 17006KT P6SM SCT100 BKN200
     FM252000 21008KT 3SM -SHRA BR SCT060 BKN080
     FM260100 VRB03KT 4SM BR SCT120
     FM260600 00000KT 1/2SM FG VV001
     FM261300 31008G18KT P6SM SCT040=

USA.gov is the U.S. government's official web portal to all federal, state and local government web resources and services.